Monday, October 23, 2017, 1:19 PM EDT
Back to Local

K12N, Aeroflex-andover Airport

Location: Newton, NJ, United States Lat: 41.017
Local Time: 1:19 PM EDT (17:19 GMT) Lon: -74.733
Time Zone: US/Eastern Elev: 583 ft

Show me the last for .
Show Decoded

2017-10-23 12:54 METAR K12N 231654Z AUTO VRB03KT 21/16 A3021 RMK AO1 SLP229 T02060161 =
2017-10-23 11:54 METAR K12N 231554Z AUTO VRB04KT 21/16 A3024 RMK AO1 SLP237 T02060161 =
2017-10-23 10:54 METAR K12N 231454Z AUTO 14009KT 19/16 A3025 RMK AO1 SLP243 T01890161 58013 =
2017-10-23 09:54 METAR K12N 231354Z AUTO VRB05KT 18/16 A3028 RMK AO1 SLP252 T01830161 =
2017-10-23 08:54 METAR K12N 231254Z AUTO VRB03KT 17/16 A3030 RMK AO1 SLP258 T01670156 =
2017-10-23 07:54 METAR K12N 231154Z AUTO 00000KT 14/14 A3029 RMK AO1 SLP258 T01440139 10144 20089
                 58008 =
2017-10-23 06:54 METAR K12N 231054Z AUTO 00000KT 13/13 A3030 RMK AO1 SLP261 T01330128 =
2017-10-23 05:54 METAR K12N 230954Z AUTO 00000KT 12/12 A3031 RMK AO1 SLP264 T01220117 =
2017-10-23 04:54 METAR K12N 230854Z AUTO 00000KT 12/12 A3032 RMK AO1 SLP263 T01220117 58007 =
2017-10-23 03:54 METAR K12N 230754Z AUTO 00000KT 12/11 A3033 RMK AO1 SLP267 T01170111 =
2017-10-23 02:54 METAR K12N 230654Z AUTO 00000KT 11/11 A3033 RMK AO1 SLP268 T01060106 =
2017-10-23 01:54 METAR K12N 230554Z AUTO 00000KT 09/09 A3034 RMK AO1 SLP272 T00940089 10128 20089
                 58010 =
2017-10-23 00:54 METAR K12N 230454Z AUTO 00000KT 09/09 A3036 RMK AO1 SLP280 T00940089 402440050 =
2017-10-22 23:54 METAR K12N 230354Z AUTO 00000KT 09/09 A3037 RMK AO1 SLP282 T00940089 =
2017-10-22 22:54 METAR K12N 230254Z AUTO 00000KT 11/10 A3037 RMK AO1 SLP283 T01060100 50005 =
2017-10-22 21:54 METAR K12N 230154Z AUTO 22003KT 12/11 A3037 RMK AO1 SLP286 T01220106 =
2017-10-22 20:54 METAR K12N 230054Z AUTO 00000KT 12/10 A3036 RMK AO1 SLP285 T01170100 =
2017-10-22 19:54 METAR K12N 222354Z AUTO 00000KT 12/11 A3036 RMK AO1 SLP283 T01220106 10244 20122
                 53006 =
2017-10-22 18:54 METAR K12N 222254Z AUTO 00000KT 14/09 A3035 RMK AO1 SLP280 T01440094 =
2017-10-22 17:54 METAR K12N 222154Z AUTO 00000KT 18/10 A3034 RMK AO1 SLP277 T01780100 =
2017-10-22 16:54 METAR K12N 222054Z AUTO VRB03KT 23/08 A3034 RMK AO1 SLP273 T02280078 58007 =
2017-10-22 15:54 METAR K12N 221954Z AUTO 22008KT 23/07 A3035 RMK AO1 SLP278 T02330072 =
2017-10-22 14:54 METAR K12N 221854Z AUTO 19006KT 24/06 A3035 RMK AO1 SLP275 T02440061 =
2017-10-22 13:54 METAR K12N 221754Z AUTO 22007KT 24/06 A3036 RMK AO1 SLP279 T02390056 10239 20061
                 58015 =

Support USWX by starting your Amazon purchase here.